createdAt,value
2023-04-07T00:00:20.403Z,99.30
2023-04-07T00:05:27.285Z,99.80
2023-04-07T00:10:34.158Z,99.90
2023-04-07T00:15:41.512Z,99.60
2023-04-07T00:20:48.672Z,99.90
2023-04-07T00:25:55.543Z,99.90
2023-04-07T00:31:02.749Z,99.90
2023-04-07T00:36:09.798Z,99.60
2023-04-07T00:41:17.181Z,99.50
2023-04-07T00:46:26.455Z,99.60
2023-04-07T00:51:33.745Z,99.80
2023-04-07T00:56:42.603Z,99.90
2023-04-07T01:01:57.287Z,99.90
2023-04-07T01:07:15.167Z,99.90
2023-04-07T01:12:46.414Z,99.90
2023-04-07T01:17:58.081Z,99.90
2023-04-07T01:23:10.077Z,99.40
2023-04-07T01:28:43.634Z,99.80
2023-04-07T01:33:53.063Z,99.50
2023-04-07T01:39:02.371Z,99.70
2023-04-07T01:44:12.890Z,99.50
2023-04-07T01:49:20.812Z,99.60
2023-04-07T01:54:29.028Z,99.20
2023-04-07T01:59:36.254Z,99.50
2023-04-07T02:05:03.731Z,99.30
2023-04-07T02:10:15.386Z,99.30
2023-04-07T02:15:24.437Z,99.90
2023-04-07T02:20:32.615Z,98.70
2023-04-07T02:25:39.544Z,98.50
2023-04-07T02:30:49.503Z,98.70
2023-04-07T02:35:56.298Z,99.10
2023-04-07T02:41:03.180Z,99.90
2023-04-07T02:46:10.080Z,99.90
2023-04-07T02:51:17.075Z,99.90
2023-04-07T02:56:24.144Z,99.90
2023-04-07T03:01:31.099Z,99.80
2023-04-07T03:06:38.288Z,99.90
2023-04-07T03:11:45.253Z,99.70
2023-04-07T03:16:52.556Z,99.70
2023-04-07T03:21:59.420Z,99.10
2023-04-07T03:27:06.579Z,99.70
2023-04-07T03:32:13.462Z,99.40
2023-04-07T03:37:20.282Z,99.90
2023-04-07T03:42:27.042Z,98.70
2023-04-07T03:47:33.903Z,99.90
2023-04-07T03:52:41.089Z,99.10
2023-04-07T03:57:47.975Z,99.40
2023-04-07T04:02:54.825Z,98.80
2023-04-07T04:08:02.093Z,98.70
2023-04-07T04:13:09.181Z,99.10
2023-04-07T04:18:16.120Z,99.70
2023-04-07T04:23:22.949Z,99.10
2023-04-07T04:28:29.730Z,99.20
2023-04-07T04:33:36.979Z,99.90
2023-04-07T04:38:43.895Z,99.10
2023-04-07T04:43:50.730Z,99.20
2023-04-07T04:48:58.266Z,99.30
2023-04-07T04:54:06.685Z,98.90
2023-04-07T04:59:13.582Z,99.90
2023-04-07T05:04:20.620Z,99.90
2023-04-07T05:09:27.868Z,98.70
2023-04-07T05:14:34.728Z,98.90
2023-04-07T05:19:41.688Z,99.10
2023-04-07T05:24:48.458Z,99.10
2023-04-07T05:29:55.329Z,99.10
2023-04-07T05:35:04.474Z,99.30
2023-04-07T05:40:12.374Z,99.10
2023-04-07T05:45:19.308Z,99.30
2023-04-07T05:50:26.295Z,99.10
2023-04-07T05:55:33.716Z,99.30
2023-04-07T06:00:42.132Z,99.30
2023-04-07T06:05:49.734Z,99.00
2023-04-07T06:10:57.018Z,99.00
2023-04-07T06:16:04.238Z,98.20
2023-04-07T06:21:11.586Z,98.10
2023-04-07T06:26:18.281Z,98.50
2023-04-07T06:31:25.219Z,99.40
2023-04-07T06:36:33.661Z,99.70
2023-04-07T06:41:42.052Z,99.30
2023-04-07T06:46:50.706Z,99.20
2023-04-07T06:51:57.720Z,99.90
2023-04-07T06:57:04.802Z,99.60
2023-04-07T07:02:11.917Z,99.90
2023-04-07T07:07:18.872Z,99.90
2023-04-07T07:12:25.583Z,99.90
2023-04-07T07:17:32.494Z,98.70
2023-04-07T07:22:39.701Z,98.90
2023-04-07T07:27:47.198Z,99.70
2023-04-07T07:32:56.012Z,98.90
2023-04-07T07:38:03.247Z,97.00
2023-04-07T07:43:10.213Z,98.90
2023-04-07T07:48:17.027Z,97.70
2023-04-07T07:53:24.385Z,98.10
2023-04-07T07:58:31.272Z,99.90
2023-04-07T08:03:38.666Z,99.40
2023-04-07T08:08:47.079Z,99.90
2023-04-07T08:13:54.707Z,99.10
2023-04-07T08:19:02.108Z,99.00
2023-04-07T08:24:10.601Z,98.10
2023-04-07T08:29:18.269Z,99.40
2023-04-07T08:34:25.211Z,96.90
2023-04-07T08:39:32.855Z,97.30
2023-04-07T08:44:40.878Z,98.50
2023-04-07T08:49:49.668Z,95.30
2023-04-07T08:54:59.717Z,94.80
2023-04-07T09:00:07.915Z,97.00
2023-04-07T09:05:16.514Z,97.80
2023-04-07T09:10:23.573Z,97.70
2023-04-07T09:15:36.773Z,98.70
2023-04-07T09:21:05.752Z,97.20
2023-04-07T09:26:28.822Z,97.40
2023-04-07T09:31:55.885Z,97.70
2023-04-07T09:37:04.963Z,95.90
2023-04-07T09:42:14.303Z,98.00
2023-04-07T09:47:24.520Z,96.20
2023-04-07T09:52:55.688Z,97.10
2023-04-07T09:58:04.218Z,98.60
2023-04-07T10:03:11.664Z,97.70
2023-04-07T10:08:18.812Z,96.00
2023-04-07T10:13:27.968Z,94.40
2023-04-07T10:18:37.760Z,93.70
2023-04-07T10:24:08.374Z,92.80
2023-04-07T10:29:18.725Z,93.70
2023-04-07T10:34:55.497Z,93.90
2023-04-07T10:40:31.392Z,92.20
2023-04-07T10:45:54.199Z,89.20
2023-04-07T10:51:16.397Z,90.90
2023-04-07T10:56:26.058Z,91.60
2023-04-07T11:01:34.196Z,91.00
2023-04-07T11:06:49.557Z,88.20
2023-04-07T11:11:56.831Z,86.40
2023-04-07T11:17:04.963Z,87.80
2023-04-07T11:27:29.117Z,87.40
2023-04-07T11:32:36.661Z,86.20
2023-04-07T11:37:43.426Z,90.60
2023-04-07T11:42:51.877Z,88.10
2023-04-07T11:47:59.126Z,89.70
2023-04-07T11:53:06.205Z,90.10
2023-04-07T11:58:13.040Z,87.90
2023-04-07T12:03:20.268Z,84.60
2023-04-07T12:08:39.999Z,83.30
2023-04-07T12:13:47.644Z,84.90
2023-04-07T12:18:55.740Z,87.20
2023-04-07T12:24:02.854Z,85.20
2023-04-07T12:29:10.097Z,83.00
2023-04-07T12:34:17.807Z,82.90
2023-04-07T12:39:24.728Z,83.20
2023-04-07T12:44:31.822Z,82.00
2023-04-07T12:49:39.966Z,84.70
2023-04-07T12:54:47.162Z,80.60
2023-04-07T12:59:54.867Z,83.90
2023-04-07T13:05:01.795Z,79.60
2023-04-07T13:10:10.912Z,82.10
2023-04-07T13:15:18.039Z,79.00
2023-04-07T13:20:26.870Z,82.10
2023-04-07T13:25:34.464Z,82.10
2023-04-07T13:30:43.353Z,78.20
2023-04-07T13:35:50.382Z,81.50
2023-04-07T13:40:58.247Z,81.80
2023-04-07T13:46:11.711Z,82.80
2023-04-07T13:51:14.552Z,81.50
2023-04-07T13:56:22.631Z,81.10
2023-04-07T14:01:29.922Z,80.80
2023-04-07T14:06:38.564Z,82.00
2023-04-07T14:11:45.852Z,83.80
2023-04-07T14:16:53.281Z,85.50
2023-04-07T14:22:00.411Z,82.40
2023-04-07T14:27:07.169Z,84.00
2023-04-07T14:32:13.795Z,83.50
2023-04-07T14:37:22.116Z,85.70
2023-04-07T14:42:30.026Z,86.60
2023-04-07T14:47:36.697Z,85.80
2023-04-07T14:52:44.080Z,86.60
2023-04-07T14:57:51.164Z,85.20
2023-04-07T15:02:58.602Z,87.80
2023-04-07T15:08:05.779Z,87.50
2023-04-07T15:13:12.946Z,88.10
2023-04-07T15:18:21.382Z,89.70
2023-04-07T15:23:28.347Z,88.30
2023-04-07T15:28:35.215Z,89.50
2023-04-07T15:33:44.522Z,89.60
2023-04-07T15:38:51.275Z,89.60
2023-04-07T15:43:58.069Z,91.20
2023-04-07T15:49:05.118Z,92.00
2023-04-07T15:54:14.095Z,92.50
2023-04-07T15:59:21.070Z,92.00
2023-04-07T16:04:27.883Z,91.80
2023-04-07T16:09:34.570Z,92.30
2023-04-07T16:14:41.380Z,92.70
2023-04-07T16:19:48.065Z,92.60
2023-04-07T16:24:55.460Z,92.70
2023-04-07T16:30:02.257Z,93.60
2023-04-07T16:35:10.456Z,93.60
2023-04-07T16:40:17.210Z,93.50
2023-04-07T16:45:24.265Z,96.20
2023-04-07T16:50:31.148Z,95.00
2023-04-07T16:55:41.818Z,95.40
2023-04-07T17:00:48.685Z,95.10
2023-04-07T17:05:55.856Z,96.80
2023-04-07T17:11:06.084Z,96.40
2023-04-07T17:16:15.363Z,97.80
2023-04-07T17:21:22.490Z,98.00
2023-04-07T17:26:29.520Z,97.90
2023-04-07T17:31:36.804Z,99.20
2023-04-07T17:36:44.235Z,99.20
2023-04-07T17:41:51.063Z,99.50
2023-04-07T17:46:58.524Z,99.40
2023-04-07T17:52:05.781Z,99.70
2023-04-07T17:57:14.244Z,99.90
2023-04-07T18:02:21.893Z,99.80
2023-04-07T18:07:29.870Z,99.90
2023-04-07T18:12:36.741Z,99.90
2023-04-07T18:17:43.565Z,99.90
2023-04-07T18:22:54.106Z,99.90
2023-04-07T18:28:02.955Z,99.90
2023-04-07T18:33:09.932Z,99.90
2023-04-07T18:38:16.836Z,99.90
2023-04-07T18:43:24.383Z,99.90
2023-04-07T18:48:31.197Z,99.90
2023-04-07T18:53:38.075Z,99.90
2023-04-07T18:58:46.668Z,99.90
2023-04-07T19:04:00.946Z,99.90
2023-04-07T19:09:07.811Z,99.90
2023-04-07T19:14:14.608Z,99.90
2023-04-07T19:19:21.696Z,99.90
2023-04-07T19:24:28.824Z,99.90
2023-04-07T19:29:36.590Z,99.90
2023-04-07T19:34:44.610Z,99.90
2023-04-07T19:40:02.439Z,99.90
2023-04-07T19:45:02.921Z,99.90
2023-04-07T19:50:12.829Z,99.90
2023-04-07T19:55:20.475Z,99.90
2023-04-07T20:00:28.546Z,99.90
2023-04-07T20:05:37.554Z,99.90
2023-04-07T20:10:44.596Z,99.90
2023-04-07T20:15:51.389Z,99.90
2023-04-07T20:21:03.693Z,99.90
2023-04-07T20:26:11.980Z,99.90
2023-04-07T20:31:19.917Z,99.90
2023-04-07T20:36:28.009Z,99.90
2023-04-07T20:41:35.382Z,99.90
2023-04-07T20:46:42.579Z,99.90
2023-04-07T20:51:49.582Z,99.90
2023-04-07T20:56:56.776Z,99.90
2023-04-07T21:02:04.219Z,99.90
2023-04-07T21:07:11.458Z,99.90
2023-04-07T21:12:19.174Z,99.90
2023-04-07T21:17:26.403Z,99.90
2023-04-07T21:22:33.938Z,99.90
2023-04-07T21:27:41.286Z,99.90
2023-04-07T21:32:48.485Z,99.90
2023-04-07T21:37:56.140Z,99.90
2023-04-07T21:43:03.188Z,99.90
2023-04-07T21:48:11.473Z,99.90
2023-04-07T21:53:18.975Z,99.90
2023-04-07T21:58:26.052Z,99.90
2023-04-07T22:03:33.162Z,99.90
2023-04-07T22:08:44.315Z,99.90
2023-04-07T22:13:49.356Z,99.90
2023-04-07T22:18:56.302Z,99.90
2023-04-07T22:24:03.268Z,99.90
2023-04-07T22:29:10.984Z,99.90
2023-04-07T22:34:18.053Z,99.90
2023-04-07T22:39:24.881Z,99.90
2023-04-07T22:44:32.155Z,99.90
2023-04-07T22:49:39.120Z,99.90
2023-04-07T22:54:47.055Z,99.90
2023-04-07T22:59:54.206Z,99.90
2023-04-07T23:05:01.501Z,99.90
2023-04-07T23:10:10.486Z,99.90
2023-04-07T23:15:17.448Z,99.90
2023-04-07T23:20:24.355Z,99.90
2023-04-07T23:25:31.550Z,99.90
2023-04-07T23:30:38.418Z,99.90
2023-04-07T23:35:45.332Z,99.90
2023-04-07T23:40:52.882Z,99.90
2023-04-07T23:45:59.858Z,99.90
2023-04-07T23:51:07.360Z,99.90
2023-04-07T23:56:14.316Z,99.90
